createdAt,value
2022-08-02T00:00:11.034Z,61.83
2022-08-02T00:02:37.578Z,62.27
2022-08-02T00:05:05.019Z,61.68
2022-08-02T00:07:31.702Z,61.63
2022-08-02T00:09:58.404Z,62.03
2022-08-02T00:12:25.089Z,62.40
2022-08-02T00:14:52.094Z,62.75
2022-08-02T00:17:18.829Z,63.00
2022-08-02T00:19:46.267Z,63.22
2022-08-02T00:22:13.259Z,63.18
2022-08-02T00:24:40.129Z,63.05
2022-08-02T00:27:09.341Z,63.11
2022-08-02T00:29:52.202Z,63.04
2022-08-02T00:32:19.776Z,62.89
2022-08-02T00:34:46.730Z,63.38
2022-08-02T00:37:13.338Z,63.68
2022-08-02T00:39:40.055Z,63.67
2022-08-02T00:42:06.777Z,63.56
2022-08-02T00:44:33.377Z,63.07
2022-08-02T00:47:00.219Z,63.53
2022-08-02T00:49:27.233Z,63.74
2022-08-02T00:51:53.807Z,64.54
2022-08-02T00:54:20.979Z,64.83
2022-08-02T00:56:49.794Z,65.07
2022-08-02T00:59:18.093Z,64.93
2022-08-02T01:01:56.576Z,64.32
2022-08-02T01:04:30.728Z,64.55
2022-08-02T01:07:03.993Z,65.39
2022-08-02T01:09:39.948Z,65.65
2022-08-02T01:12:06.857Z,65.94
2022-08-02T01:14:33.542Z,66.55
2022-08-02T01:17:06.948Z,66.77
2022-08-02T01:19:57.639Z,67.09
2022-08-02T01:23:01.067Z,66.79
2022-08-02T01:25:44.884Z,66.98
2022-08-02T01:28:56.088Z,66.21
2022-08-02T01:31:36.871Z,66.83
2022-08-02T01:34:09.782Z,67.66
2022-08-02T01:36:41.651Z,68.25
2022-08-02T01:39:11.573Z,68.51
2022-08-02T01:41:58.063Z,68.28
2022-08-02T01:44:28.116Z,68.04
2022-08-02T01:46:58.517Z,67.84
2022-08-02T01:49:30.190Z,67.67
2022-08-02T01:52:17.022Z,67.68
2022-08-02T01:54:46.171Z,67.41
2022-08-02T01:57:14.492Z,67.02
2022-08-02T01:59:44.137Z,67.95
2022-08-02T02:02:14.441Z,68.47
2022-08-02T02:04:41.182Z,69.08
2022-08-02T02:07:08.480Z,68.77
2022-08-02T02:09:47.752Z,68.75
2022-08-02T02:12:19.438Z,69.44
2022-08-02T02:14:51.579Z,69.82
2022-08-02T02:17:52.826Z,69.65
2022-08-02T02:20:13.104Z,69.41
2022-08-02T02:22:39.693Z,69.71
2022-08-02T02:25:11.438Z,70.22
2022-08-02T02:27:44.315Z,69.99
2022-08-02T02:30:12.598Z,69.44
2022-08-02T02:32:41.686Z,70.04
2022-08-02T02:35:11.208Z,70.26
2022-08-02T02:37:38.723Z,70.42
2022-08-02T02:40:16.891Z,70.88
2022-08-02T02:42:49.352Z,71.46
2022-08-02T02:45:16.774Z,71.16
2022-08-02T02:47:43.442Z,71.72
2022-08-02T02:50:11.370Z,72.16
2022-08-02T02:52:40.262Z,72.22
2022-08-02T02:55:10.184Z,72.04
2022-08-02T02:57:38.069Z,71.15
2022-08-02T03:00:08.599Z,71.95
2022-08-02T03:02:38.701Z,72.61
2022-08-02T03:05:08.044Z,73.54
2022-08-02T03:07:35.184Z,74.13
2022-08-02T03:10:04.810Z,74.68
2022-08-02T03:12:32.594Z,74.71
2022-08-02T03:15:06.125Z,74.57
2022-08-02T03:17:44.176Z,74.84
2022-08-02T03:20:17.147Z,74.89
2022-08-02T03:22:45.083Z,75.32
2022-08-02T03:25:13.955Z,75.98
2022-08-02T03:27:41.113Z,75.66
2022-08-02T03:30:11.507Z,75.35
2022-08-02T03:32:40.121Z,75.19
2022-08-02T03:35:09.146Z,75.48
2022-08-02T03:37:36.949Z,76.21
2022-08-02T03:40:07.109Z,75.98
2022-08-02T03:42:33.725Z,75.50
2022-08-02T03:45:07.788Z,74.78
2022-08-02T03:47:38.059Z,74.35
2022-08-02T03:50:05.975Z,74.15
2022-08-02T03:52:33.779Z,73.98
2022-08-02T03:55:00.515Z,73.65
2022-08-02T03:57:27.075Z,73.66
2022-08-02T03:59:53.649Z,73.66
2022-08-02T04:02:20.124Z,73.84
2022-08-02T04:04:46.668Z,73.54
2022-08-02T04:07:13.107Z,73.37
2022-08-02T04:09:39.675Z,73.61
2022-08-02T04:12:07.706Z,73.32
2022-08-02T04:14:35.616Z,72.91
2022-08-02T04:17:08.032Z,73.06
2022-08-02T04:19:40.574Z,72.78
2022-08-02T04:22:19.540Z,73.01
2022-08-02T04:24:50.987Z,72.99
2022-08-02T04:27:50.832Z,72.63
2022-08-02T04:30:08.239Z,72.85
2022-08-02T04:32:36.000Z,73.11
2022-08-02T04:35:19.534Z,73.13
2022-08-02T04:38:09.110Z,73.41
2022-08-02T04:40:33.928Z,73.16
2022-08-02T04:43:00.552Z,72.97
2022-08-02T04:45:29.425Z,72.70
2022-08-02T04:48:04.469Z,72.71
2022-08-02T04:50:32.002Z,72.19
2022-08-02T04:52:58.611Z,72.02
2022-08-02T04:55:29.359Z,72.50
2022-08-02T04:57:57.610Z,72.15
2022-08-02T05:00:25.955Z,72.40
2022-08-02T05:02:52.639Z,72.17
2022-08-02T05:05:19.094Z,72.09
2022-08-02T05:07:45.553Z,71.96
2022-08-02T05:10:12.143Z,71.46
2022-08-02T05:12:39.120Z,71.30
2022-08-02T05:15:06.273Z,70.98
2022-08-02T05:17:36.128Z,70.87
2022-08-02T05:20:02.713Z,70.60
2022-08-02T05:22:29.152Z,70.44
2022-08-02T05:24:55.982Z,70.07
2022-08-02T05:27:22.432Z,69.97
2022-08-02T05:29:53.828Z,69.52
2022-08-02T05:32:25.198Z,69.25
2022-08-02T05:34:53.442Z,68.96
2022-08-02T05:37:19.985Z,68.73
2022-08-02T05:39:55.536Z,68.59
2022-08-02T05:42:22.690Z,68.23
2022-08-02T05:44:49.413Z,67.85
2022-08-02T05:47:15.863Z,67.25
2022-08-02T05:49:42.950Z,66.96
2022-08-02T05:52:18.730Z,66.55
2022-08-02T05:54:54.373Z,66.06
2022-08-02T05:57:32.673Z,65.75
2022-08-02T06:00:13.635Z,65.07
2022-08-02T06:02:42.953Z,65.03
2022-08-02T06:05:15.427Z,65.05
2022-08-02T06:07:43.901Z,65.10
2022-08-02T06:10:15.469Z,65.13
2022-08-02T06:12:50.255Z,65.32
2022-08-02T06:15:19.487Z,65.37
2022-08-02T06:17:47.957Z,65.25
2022-08-02T06:20:15.526Z,65.01
2022-08-02T06:22:44.635Z,65.17
2022-08-02T06:25:50.975Z,65.27
2022-08-02T06:28:11.560Z,64.66
2022-08-02T06:30:39.103Z,64.74
2022-08-02T06:33:05.837Z,65.14
2022-08-02T06:35:44.103Z,64.75
2022-08-02T06:38:16.997Z,64.71
2022-08-02T06:40:55.637Z,64.71
2022-08-02T06:43:44.504Z,64.66
2022-08-02T06:46:57.001Z,64.16
2022-08-02T06:48:57.991Z,63.74
2022-08-02T06:51:24.551Z,63.69
2022-08-02T06:53:51.049Z,63.95
2022-08-02T06:56:17.575Z,63.83
2022-08-02T06:58:44.045Z,64.04
2022-08-02T07:01:10.695Z,64.08
2022-08-02T07:03:38.857Z,63.97
2022-08-02T07:06:06.730Z,63.65
2022-08-02T07:08:38.424Z,63.58
2022-08-02T07:11:09.438Z,63.26
2022-08-02T07:13:39.663Z,63.50
2022-08-02T07:16:07.661Z,62.41
2022-08-02T07:18:34.542Z,62.57
2022-08-02T07:21:01.110Z,61.98
2022-08-02T07:23:27.711Z,61.31
2022-08-02T07:26:03.354Z,61.29
2022-08-02T07:28:31.031Z,60.92
2022-08-02T07:30:57.618Z,61.20
2022-08-02T07:33:37.516Z,61.18
2022-08-02T07:36:08.167Z,61.10
2022-08-02T07:38:36.275Z,61.05
2022-08-02T07:41:04.473Z,60.38
2022-08-02T07:43:31.239Z,59.99
2022-08-02T07:46:00.726Z,59.15
2022-08-02T07:48:27.934Z,58.82
2022-08-02T07:50:54.532Z,58.85
2022-08-02T07:53:21.120Z,58.45
2022-08-02T07:56:07.611Z,58.28
2022-08-02T07:58:34.153Z,58.43
2022-08-02T08:01:00.659Z,58.24
2022-08-02T08:03:27.349Z,57.52
2022-08-02T08:05:54.513Z,56.71
2022-08-02T08:08:21.068Z,56.89
2022-08-02T08:10:47.835Z,57.09
2022-08-02T08:13:15.352Z,56.92
2022-08-02T08:15:50.100Z,56.65
2022-08-02T08:18:18.713Z,56.56
2022-08-02T08:20:45.323Z,56.75
2022-08-02T08:23:11.806Z,56.01
2022-08-02T08:25:39.629Z,55.70
2022-08-02T08:28:08.338Z,55.30
2022-08-02T08:30:34.944Z,55.17
2022-08-02T08:33:01.965Z,54.97
2022-08-02T08:35:28.617Z,54.74
2022-08-02T08:37:55.177Z,54.59
2022-08-02T08:40:21.990Z,55.08
2022-08-02T08:42:49.051Z,55.03
2022-08-02T08:45:16.355Z,54.79
2022-08-02T08:47:43.109Z,54.96
2022-08-02T08:50:24.545Z,54.39
2022-08-02T08:53:01.641Z,54.30
2022-08-02T08:55:29.567Z,53.84
2022-08-02T08:57:58.730Z,54.04
2022-08-02T09:00:25.438Z,53.86
2022-08-02T09:02:52.014Z,54.19
2022-08-02T09:05:18.990Z,54.15
2022-08-02T09:07:50.406Z,54.23
2022-08-02T09:10:38.887Z,54.21
2022-08-02T09:13:44.890Z,54.17
2022-08-02T09:16:14.329Z,53.59
2022-08-02T09:18:46.723Z,53.11
2022-08-02T09:21:15.854Z,53.35
2022-08-02T09:23:45.387Z,52.89
2022-08-02T09:26:14.977Z,52.46
2022-08-02T09:28:43.392Z,52.22
2022-08-02T09:31:20.560Z,52.26
2022-08-02T09:33:56.626Z,52.32
2022-08-02T09:36:24.429Z,52.30
2022-08-02T09:39:04.044Z,52.08
2022-08-02T09:41:33.005Z,52.30
2022-08-02T09:44:04.854Z,52.21
2022-08-02T09:46:40.942Z,51.95
2022-08-02T09:49:19.932Z,51.74
2022-08-02T09:51:49.689Z,51.95
2022-08-02T09:54:19.142Z,51.28
2022-08-02T09:56:51.728Z,51.25
2022-08-02T09:59:20.623Z,51.14
2022-08-02T10:01:51.296Z,50.63
2022-08-02T10:04:34.360Z,50.55
2022-08-02T10:07:19.249Z,50.33
2022-08-02T10:09:49.165Z,50.03
2022-08-02T10:12:16.128Z,50.08
2022-08-02T10:14:43.841Z,50.15
2022-08-02T10:17:10.882Z,50.30
2022-08-02T10:19:59.780Z,50.00
2022-08-02T10:22:25.213Z,49.79
2022-08-02T10:24:52.721Z,49.92
2022-08-02T10:27:21.526Z,49.06
2022-08-02T10:29:54.667Z,48.50
2022-08-02T10:32:34.529Z,49.04
2022-08-02T10:35:19.485Z,48.12
2022-08-02T10:37:56.629Z,48.74
2022-08-02T10:40:23.615Z,48.05
2022-08-02T10:42:55.003Z,47.50
2022-08-02T10:45:22.786Z,47.81
2022-08-02T10:48:11.947Z,48.36
2022-08-02T10:50:50.632Z,47.96
2022-08-02T10:53:31.065Z,47.12
2022-08-02T10:56:00.690Z,47.68
2022-08-02T10:58:31.528Z,47.56
2022-08-02T11:00:59.871Z,46.87
2022-08-02T11:03:39.379Z,46.41
2022-08-02T11:06:24.972Z,45.75
2022-08-02T11:09:31.869Z,45.05
2022-08-02T11:12:06.335Z,44.84
2022-08-02T11:14:35.477Z,45.35
2022-08-02T11:17:05.922Z,44.68
2022-08-02T11:19:34.041Z,43.83
2022-08-02T11:22:07.787Z,42.81
2022-08-02T11:24:40.217Z,43.10
2022-08-02T11:27:08.922Z,42.70
2022-08-02T11:29:41.124Z,43.00
2022-08-02T11:32:31.187Z,43.44
2022-08-02T11:34:58.841Z,44.33
2022-08-02T11:37:40.327Z,44.82
2022-08-02T11:40:19.751Z,44.04
2022-08-02T11:42:51.313Z,44.38
2022-08-02T11:45:28.966Z,44.66
2022-08-02T11:47:56.371Z,43.72
2022-08-02T11:50:29.664Z,42.67
2022-08-02T11:52:57.323Z,42.98
2022-08-02T11:55:29.008Z,42.04
2022-08-02T11:58:05.360Z,42.85
2022-08-02T12:00:32.655Z,43.02
2022-08-02T12:02:59.832Z,42.04
2022-08-02T12:06:05.087Z,42.65
2022-08-02T12:08:19.076Z,41.92
2022-08-02T12:10:49.782Z,41.76
2022-08-02T12:13:16.258Z,42.11
2022-08-02T12:15:45.662Z,42.18
2022-08-02T12:18:34.837Z,42.40
2022-08-02T12:21:01.872Z,42.00
2022-08-02T12:23:28.720Z,42.54
2022-08-02T12:26:06.478Z,43.33
2022-08-02T12:28:41.075Z,42.97
2022-08-02T12:31:15.569Z,43.16
2022-08-02T12:33:49.242Z,42.00
2022-08-02T12:36:30.008Z,43.03
2022-08-02T12:38:58.741Z,42.74
2022-08-02T12:41:30.843Z,43.06
2022-08-02T12:43:59.952Z,42.79
2022-08-02T12:46:26.835Z,41.78
2022-08-02T12:49:16.711Z,42.16
2022-08-02T12:51:50.845Z,42.02
2022-08-02T12:54:30.814Z,42.72
2022-08-02T12:57:11.053Z,41.93
2022-08-02T12:59:40.055Z,41.94
2022-08-02T13:02:10.657Z,42.09
2022-08-02T13:04:37.877Z,42.23
2022-08-02T13:07:05.414Z,42.48
2022-08-02T13:09:40.413Z,42.47
2022-08-02T13:12:07.993Z,42.47
2022-08-02T13:14:42.035Z,41.88
2022-08-02T13:17:09.866Z,40.73
2022-08-02T13:19:36.952Z,40.82
2022-08-02T13:22:04.080Z,40.96
2022-08-02T13:24:39.875Z,40.55
2022-08-02T13:27:20.972Z,40.65
2022-08-02T13:29:49.253Z,39.59
2022-08-02T13:32:16.449Z,39.83
2022-08-02T13:34:43.446Z,39.20
2022-08-02T13:37:10.319Z,38.72
2022-08-02T13:39:36.992Z,38.15
2022-08-02T13:42:03.748Z,38.00
2022-08-02T13:44:32.328Z,37.82
2022-08-02T13:46:58.879Z,37.33
2022-08-02T13:49:50.658Z,37.44
2022-08-02T13:52:12.769Z,38.01
2022-08-02T13:54:39.614Z,36.99
2022-08-02T13:57:06.240Z,37.12
2022-08-02T13:59:56.699Z,37.21
2022-08-02T14:02:19.335Z,36.99
2022-08-02T14:04:45.950Z,36.35
2022-08-02T14:07:12.856Z,36.00
2022-08-02T14:09:39.756Z,35.97
2022-08-02T14:12:07.801Z,35.80
2022-08-02T14:14:34.442Z,35.95
2022-08-02T14:17:01.864Z,36.20
2022-08-02T14:19:28.585Z,36.05
2022-08-02T14:21:55.084Z,36.05
2022-08-02T14:24:38.088Z,35.11
2022-08-02T14:27:04.658Z,34.19
2022-08-02T14:29:31.107Z,34.03
2022-08-02T14:31:57.649Z,34.53
2022-08-02T14:34:24.566Z,34.50
2022-08-02T14:36:53.800Z,33.76
2022-08-02T14:39:21.074Z,33.96
2022-08-02T14:41:59.324Z,34.05
2022-08-02T14:44:26.892Z,33.76
2022-08-02T14:46:53.922Z,33.70
2022-08-02T14:49:25.220Z,33.16
2022-08-02T14:51:53.529Z,32.95
2022-08-02T14:54:20.389Z,32.54
2022-08-02T14:56:56.271Z,32.06
2022-08-02T14:59:22.890Z,31.88
2022-08-02T15:01:49.534Z,32.17
2022-08-02T15:04:16.128Z,31.43
2022-08-02T15:06:42.620Z,30.85
2022-08-02T15:09:10.197Z,30.55
2022-08-02T15:11:47.851Z,30.93
2022-08-02T15:14:18.521Z,30.81
2022-08-02T15:16:59.228Z,30.58
2022-08-02T15:19:54.623Z,30.44
2022-08-02T15:22:16.712Z,30.70
2022-08-02T15:24:46.175Z,30.86
2022-08-02T15:27:14.354Z,32.16
2022-08-02T15:29:42.995Z,32.39
2022-08-02T15:32:10.076Z,33.18
2022-08-02T15:34:36.801Z,34.27
2022-08-02T15:37:03.381Z,34.89
2022-08-02T15:39:30.293Z,35.40
2022-08-02T15:41:58.066Z,36.11
2022-08-02T15:44:25.047Z,36.54
2022-08-02T15:46:51.770Z,36.80
2022-08-02T15:49:20.913Z,37.21
2022-08-02T15:51:47.459Z,37.89
2022-08-02T15:54:13.993Z,38.00
2022-08-02T15:56:40.700Z,38.13
2022-08-02T15:59:07.151Z,38.16
2022-08-02T16:01:38.594Z,38.29
2022-08-02T16:04:07.228Z,38.30
2022-08-02T16:06:35.168Z,38.49
2022-08-02T16:09:02.538Z,38.88
2022-08-02T16:11:29.344Z,38.83
2022-08-02T16:13:56.683Z,39.15
2022-08-02T16:16:26.586Z,38.51
2022-08-02T16:18:53.884Z,38.49
2022-08-02T16:21:22.756Z,38.79
2022-08-02T16:23:58.824Z,38.74
2022-08-02T16:26:34.224Z,38.49
2022-08-02T16:29:02.253Z,38.56
2022-08-02T16:31:29.138Z,38.74
2022-08-02T16:33:57.071Z,38.68
2022-08-02T16:36:26.053Z,38.89
2022-08-02T16:38:53.490Z,38.62
2022-08-02T16:41:20.574Z,38.65
2022-08-02T16:43:47.199Z,39.08
2022-08-02T16:46:13.696Z,39.35
2022-08-02T16:48:41.126Z,39.12
2022-08-02T16:51:13.329Z,39.11
2022-08-02T16:54:00.645Z,38.87
2022-08-02T16:56:28.645Z,38.67
2022-08-02T16:58:55.405Z,39.17
2022-08-02T17:01:27.376Z,39.22
2022-08-02T17:03:56.614Z,39.54
2022-08-02T17:06:26.248Z,39.01
2022-08-02T17:08:56.238Z,39.02
2022-08-02T17:11:23.869Z,38.86
2022-08-02T17:14:09.522Z,38.89
2022-08-02T17:16:36.504Z,39.52
2022-08-02T17:19:03.153Z,38.91
2022-08-02T17:21:31.775Z,39.00
2022-08-02T17:24:05.086Z,39.02
2022-08-02T17:26:34.731Z,39.04
2022-08-02T17:29:15.387Z,39.13
2022-08-02T17:32:06.206Z,39.63
2022-08-02T17:34:35.018Z,39.42
2022-08-02T17:37:01.561Z,39.89
2022-08-02T17:39:34.076Z,39.80
2022-08-02T17:42:01.694Z,40.09
2022-08-02T17:44:36.636Z,40.04
2022-08-02T17:47:07.003Z,39.85
2022-08-02T17:49:33.703Z,39.77
2022-08-02T17:52:15.062Z,39.55
2022-08-02T17:54:48.775Z,39.78
2022-08-02T17:57:19.306Z,39.86
2022-08-02T18:00:03.942Z,40.09
2022-08-02T18:02:31.227Z,40.15
2022-08-02T18:04:57.701Z,40.19
2022-08-02T18:07:25.032Z,40.39
2022-08-02T18:09:52.338Z,40.90
2022-08-02T18:12:20.315Z,41.07
2022-08-02T18:14:49.207Z,40.99
2022-08-02T18:17:17.129Z,41.17
2022-08-02T18:19:57.207Z,41.20
2022-08-02T18:22:30.340Z,41.33
2022-08-02T18:24:56.844Z,41.54
2022-08-02T18:27:23.889Z,41.37
2022-08-02T18:33:58.596Z,42.08
2022-08-02T18:35:23.935Z,42.22
2022-08-02T18:37:57.323Z,42.41
2022-08-02T18:40:30.540Z,42.22
2022-08-02T18:42:57.681Z,42.67
2022-08-02T18:45:24.882Z,44.47
2022-08-02T18:48:11.400Z,44.52
2022-08-02T18:50:43.862Z,43.55
2022-08-02T18:53:13.445Z,43.63
2022-08-02T18:58:26.454Z,43.68
2022-08-02T19:00:55.895Z,43.76
2022-08-02T19:03:22.336Z,44.15
2022-08-02T19:05:51.998Z,44.21
2022-08-02T19:08:26.128Z,44.51
2022-08-02T19:10:53.800Z,44.51
2022-08-02T19:13:22.889Z,44.60
2022-08-02T19:15:49.513Z,44.64
2022-08-02T19:18:16.068Z,44.76
2022-08-02T19:20:48.295Z,44.90
2022-08-02T19:23:17.058Z,44.99
2022-08-02T19:25:54.519Z,45.49
2022-08-02T19:28:25.855Z,45.48
2022-08-02T19:30:52.937Z,45.83
2022-08-02T19:33:54.939Z,45.95
2022-08-02T19:36:06.553Z,46.46
2022-08-02T19:38:33.112Z,46.68
2022-08-02T19:40:59.850Z,47.11
2022-08-02T19:44:27.373Z,47.58
2022-08-02T19:46:15.899Z,48.23
2022-08-02T19:48:42.533Z,48.50
2022-08-02T19:51:12.827Z,48.53
2022-08-02T19:53:48.826Z,48.74
2022-08-02T19:56:24.871Z,48.72
2022-08-02T19:59:13.391Z,49.12
2022-08-02T20:01:43.493Z,49.48
2022-08-02T20:04:15.197Z,50.08
2022-08-02T20:06:50.608Z,50.16
2022-08-02T20:09:22.893Z,50.37
2022-08-02T20:11:54.107Z,50.79
2022-08-02T20:14:26.531Z,50.79
2022-08-02T20:16:54.659Z,51.20
2022-08-02T20:19:21.706Z,51.39
2022-08-02T20:21:55.515Z,51.38
2022-08-02T20:24:26.617Z,51.32
2022-08-02T20:26:53.437Z,51.34
2022-08-02T20:29:43.156Z,51.64
2022-08-02T20:32:07.868Z,51.77
2022-08-02T20:34:36.314Z,52.31
2022-08-02T20:37:55.898Z,52.14
2022-08-02T20:39:51.022Z,52.28
2022-08-02T20:42:23.166Z,52.17
2022-08-02T20:44:53.999Z,52.80
2022-08-02T20:47:38.880Z,52.53
2022-08-02T20:50:31.185Z,52.94
2022-08-02T20:53:01.056Z,53.40
2022-08-02T20:55:31.068Z,53.48
2022-08-02T20:58:02.686Z,53.54
2022-08-02T21:00:30.330Z,53.98
2022-08-02T21:02:57.209Z,53.67
2022-08-02T21:05:26.578Z,54.30
2022-08-02T21:07:54.958Z,54.13
2022-08-02T21:10:24.000Z,53.99
2022-08-02T21:12:52.533Z,54.08
2022-08-02T21:15:19.301Z,54.09
2022-08-02T21:17:52.235Z,54.32
2022-08-02T21:20:29.445Z,54.44
2022-08-02T21:22:56.923Z,54.21
2022-08-02T21:25:24.047Z,54.85
2022-08-02T21:28:10.104Z,55.02
2022-08-02T21:30:43.983Z,55.07
2022-08-02T21:33:22.408Z,55.58
2022-08-02T21:35:50.441Z,55.61
2022-08-02T21:38:36.438Z,56.09
2022-08-02T21:41:05.916Z,56.12
2022-08-02T21:43:38.484Z,56.35
2022-08-02T21:46:05.710Z,56.94
2022-08-02T21:48:32.324Z,56.92
2022-08-02T21:50:58.783Z,57.31
2022-08-02T21:53:42.822Z,57.53
2022-08-02T21:56:10.649Z,57.43
2022-08-02T21:58:37.529Z,57.70
2022-08-02T22:01:04.663Z,58.09
2022-08-02T22:03:32.126Z,58.17
2022-08-02T22:05:59.408Z,58.64
2022-08-02T22:08:28.836Z,58.47
2022-08-02T22:11:01.572Z,59.05
2022-08-02T22:13:38.902Z,59.62
2022-08-02T22:16:14.212Z,59.78
2022-08-02T22:18:40.928Z,59.99
2022-08-02T22:21:16.955Z,60.35
2022-08-02T22:23:50.292Z,60.41
2022-08-02T22:26:19.007Z,60.17
2022-08-02T22:28:52.120Z,59.68
2022-08-02T22:31:40.483Z,60.02
2022-08-02T22:34:26.871Z,60.58
2022-08-02T22:36:54.942Z,60.82
2022-08-02T22:39:21.456Z,60.80
2022-08-02T22:42:05.344Z,61.34
2022-08-02T22:44:34.077Z,61.99
2022-08-02T22:47:07.506Z,62.04
2022-08-02T22:49:51.530Z,62.34
2022-08-02T22:52:28.936Z,62.37
2022-08-02T22:54:55.390Z,62.81
2022-08-02T22:57:30.539Z,62.97
2022-08-02T22:58:57.897Z,43.45
2022-08-02T22:59:10.149Z,41.87
2022-08-02T22:59:57.980Z,62.92
2022-08-02T23:02:24.978Z,62.77
2022-08-02T23:04:52.050Z,62.47
2022-08-02T23:07:18.471Z,62.20
2022-08-02T23:09:45.108Z,62.23
2022-08-02T23:12:11.552Z,62.38
2022-08-02T23:14:37.990Z,62.58
2022-08-02T23:17:23.703Z,62.61
2022-08-02T23:19:52.860Z,62.68
2022-08-02T23:22:29.336Z,62.68
2022-08-02T23:24:57.545Z,63.33
2022-08-02T23:27:24.778Z,63.59
2022-08-02T23:29:51.271Z,63.73
2022-08-02T23:32:18.077Z,63.65
2022-08-02T23:34:49.958Z,63.26
2022-08-02T23:37:16.390Z,63.37
2022-08-02T23:39:43.668Z,63.26
2022-08-02T23:42:10.251Z,63.33
2022-08-02T23:44:36.785Z,63.29
2022-08-02T23:47:03.391Z,63.50
2022-08-02T23:49:29.882Z,63.51
2022-08-02T23:52:01.285Z,63.33
2022-08-02T23:54:30.390Z,63.21
2022-08-02T23:56:57.091Z,63.56
2022-08-02T23:59:23.592Z,63.75
